Time;durP1;ratioP1;P1;durP2;ratioP2;P2;SDS_P1;SDS_P2;PMS_P1;PMS_P2;Temp;Humidity;BMP_temperature;BMP_pressure;BME280_temperature;BME280_humidity;BME280_pressure;Samples;Min_cycle;Max_cycle;Signal;HPM_P1;HPM_P2
2021/08/15 00:00:30;;;;;;;;;;;18.10;99.90;;;;;;5061737;28;19905;-83
2021/08/15 00:02:56;;;;;;;;;;;18.10;99.90;;;;;;5060434;28;19999;-83
2021/08/15 00:05:21;;;;;;;;;;;18.00;99.90;;;;;;5077701;28;20202;-83
2021/08/15 00:07:47;;;;;;;;;;;18.00;99.90;;;;;;5062018;28;20003;-83
2021/08/15 00:10:12;;;;;;;;;;;18.10;99.90;;;;;;5060712;28;19916;-83
2021/08/15 00:12:38;;;;;;;;;;;18.00;99.90;;;;;;5061387;28;19966;-83
2021/08/15 00:15:05;;;;;;;;;;;18.00;99.90;;;;;;5061773;28;20203;-83
2021/08/15 00:17:30;;;;;;;;;;;18.00;99.90;;;;;;5060301;28;19909;-83
2021/08/15 00:19:56;;;;;;;;;;;18.00;99.90;;;;;;5060897;28;19917;-83
2021/08/15 00:22:21;;;;;;;;;;;17.90;99.90;;;;;;5076586;28;19988;-83
2021/08/15 00:24:47;;;;;;;;;;;17.90;99.90;;;;;;5060440;28;19916;-83
2021/08/15 00:27:12;;;;;;;;;;;17.90;99.90;;;;;;5076649;28;19916;-83
2021/08/15 00:29:38;;;;;;;;;;;17.90;99.90;;;;;;5060090;28;19915;-83
2021/08/15 00:32:05;;;;;;;;;;;17.90;99.90;;;;;;5061348;28;19970;-83
2021/08/15 00:34:32;;;;;;;;;;;17.80;99.90;;;;;;5061215;28;19908;-83
2021/08/15 00:36:57;;;;;;;;;;;17.80;99.90;;;;;;5061227;28;20380;-83
2021/08/15 00:39:23;;;;;;;;;;;17.70;99.90;;;;;;5059269;28;19936;-83
2021/08/15 00:41:49;;;;;;;;;;;17.80;99.90;;;;;;5059229;28;20472;-83
2021/08/15 00:44:14;;;;;;;;;;;17.80;99.90;;;;;;5059703;28;19912;-83
2021/08/15 00:46:41;;;;;;;;;;;17.70;99.90;;;;;;5076226;28;19909;-83
2021/08/15 00:49:07;;;;;;;;;;;17.70;99.90;;;;;;5058441;28;19915;-83
2021/08/15 00:51:32;;;;;;;;;;;17.70;99.90;;;;;;5061072;28;20339;-83
2021/08/15 00:53:58;;;;;;;;;;;17.70;99.90;;;;;;5076525;28;19909;-83
2021/08/15 00:56:24;;;;;;;;;;;17.70;99.90;;;;;;5059243;28;19964;-83
2021/08/15 00:58:50;;;;;;;;;;;17.70;99.90;;;;;;5072538;28;19931;-83
2021/08/15 01:01:17;;;;;;;;;;;17.60;99.90;;;;;;5072070;28;20377;-83
2021/08/15 01:03:43;;;;;;;;;;;17.60;99.90;;;;;;5055431;28;19916;-83
2021/08/15 01:06:08;;;;;;;;;;;17.60;99.90;;;;;;5057580;28;19909;-83
2021/08/15 01:08:35;;;;;;;;;;;17.60;99.90;;;;;;5072185;28;19920;-83
2021/08/15 01:11:01;;;;;;;;;;;17.60;99.90;;;;;;5071295;28;19912;-83
2021/08/15 01:13:27;;;;;;;;;;;17.60;99.90;;;;;;5057206;28;20373;-83
2021/08/15 01:15:53;;;;;;;;;;;17.70;99.90;;;;;;5072747;28;19995;-82
2021/08/15 01:18:22;;;;;;;;;;;17.80;99.90;;;;;;5056860;28;20280;-83
2021/08/15 01:20:49;;;;;;;;;;;17.90;99.90;;;;;;5054684;28;19960;-83
2021/08/15 01:23:15;;;;;;;;;;;17.90;99.90;;;;;;5057109;28;19913;-83
2021/08/15 01:25:40;;;;;;;;;;;17.90;99.90;;;;;;5057016;28;19909;-83
2021/08/15 01:28:12;;;;;;;;;;;17.90;99.90;;;;;;5057113;28;20365;-83
2021/08/15 01:30:37;;;;;;;;;;;17.90;99.90;;;;;;5056399;28;19963;-83
2021/08/15 01:33:03;;;;;;;;;;;17.80;99.90;;;;;;5057056;28;19916;-83
2021/08/15 01:35:29;;;;;;;;;;;17.90;99.90;;;;;;5054455;28;19967;-82
2021/08/15 01:37:54;;;;;;;;;;;17.90;99.90;;;;;;5055383;28;19996;-82
2021/08/15 01:40:20;;;;;;;;;;;18.00;99.90;;;;;;5070412;28;20000;-82
2021/08/15 01:42:46;;;;;;;;;;;18.00;99.90;;;;;;5070372;28;19909;-82
2021/08/15 01:45:12;;;;;;;;;;;18.00;99.90;;;;;;5055962;28;20258;-82
2021/08/15 01:47:38;;;;;;;;;;;18.00;99.90;;;;;;5053790;28;19915;-82
2021/08/15 01:50:03;;;;;;;;;;;17.90;99.90;;;;;;5053174;28;19956;-82
2021/08/15 01:52:29;;;;;;;;;;;17.90;99.90;;;;;;5053870;28;19947;-82
2021/08/15 01:54:54;;;;;;;;;;;17.90;99.90;;;;;;5055016;28;19909;-82
2021/08/15 01:57:20;;;;;;;;;;;18.00;99.90;;;;;;5055089;28;19909;-82
2021/08/15 01:59:45;;;;;;;;;;;18.00;99.90;;;;;;5054272;28;20416;-82
2021/08/15 02:02:11;;;;;;;;;;;18.00;99.90;;;;;;5055134;28;20370;-82
2021/08/15 02:04:36;;;;;;;;;;;18.00;99.90;;;;;;5053894;28;19915;-82
2021/08/15 02:07:03;;;;;;;;;;;18.00;99.90;;;;;;5053501;28;19909;-82
2021/08/15 02:09:28;;;;;;;;;;;18.00;99.90;;;;;;5054421;28;19932;-82
2021/08/15 02:11:54;;;;;;;;;;;18.00;99.90;;;;;;5054785;28;20358;-82
2021/08/15 02:14:19;;;;;;;;;;;18.10;99.90;;;;;;5053356;28;19916;-82
2021/08/15 02:16:45;;;;;;;;;;;18.10;99.90;;;;;;5054727;28;19970;-82
2021/08/15 02:19:10;;;;;;;;;;;18.10;99.90;;;;;;5052663;28;19923;-82
2021/08/15 02:21:36;;;;;;;;;;;18.00;99.90;;;;;;5053880;28;20007;-82
2021/08/15 02:24:01;;;;;;;;;;;18.00;99.90;;;;;;5053428;28;19912;-82
2021/08/15 02:26:27;;;;;;;;;;;17.90;99.90;;;;;;5053310;28;19916;-82
2021/08/15 02:28:52;;;;;;;;;;;17.90;99.90;;;;;;5069165;28;19931;-82
2021/08/15 02:31:18;;;;;;;;;;;17.90;99.90;;;;;;5053874;28;19988;-82
2021/08/15 02:33:43;;;;;;;;;;;17.90;99.90;;;;;;5053024;28;20357;-82
2021/08/15 02:36:09;;;;;;;;;;;17.80;99.90;;;;;;5069998;28;19917;-82
2021/08/15 02:38:34;;;;;;;;;;;17.80;99.90;;;;;;5054805;28;20435;-82
2021/08/15 02:41:00;;;;;;;;;;;17.80;99.90;;;;;;5052822;28;19913;-82
2021/08/15 02:43:25;;;;;;;;;;;17.70;99.90;;;;;;5054742;28;19909;-82
2021/08/15 02:45:51;;;;;;;;;;;17.70;99.90;;;;;;5054551;28;20003;-82
2021/08/15 02:48:16;;;;;;;;;;;17.70;99.90;;;;;;5052735;28;19908;-82
2021/08/15 02:50:42;;;;;;;;;;;17.70;99.90;;;;;;5052415;28;20380;-82
2021/08/15 02:53:07;;;;;;;;;;;17.70;99.90;;;;;;5053985;28;19909;-82
2021/08/15 02:55:33;;;;;;;;;;;17.70;99.90;;;;;;5053231;28;19912;-82
2021/08/15 02:57:58;;;;;;;;;;;17.70;99.90;;;;;;5054325;28;19908;-82
2021/08/15 03:00:24;;;;;;;;;;;17.70;99.90;;;;;;5052448;28;20296;-82
2021/08/15 03:02:49;;;;;;;;;;;17.70;99.90;;;;;;5069526;28;19908;-82
2021/08/15 03:05:15;;;;;;;;;;;17.70;99.90;;;;;;5054700;28;20373;-82
2021/08/15 03:07:41;;;;;;;;;;;17.70;99.90;;;;;;5053360;28;19951;-82
2021/08/15 03:10:07;;;;;;;;;;;17.80;99.90;;;;;;5053396;28;19915;-82
2021/08/15 03:12:33;;;;;;;;;;;17.70;99.90;;;;;;5052738;28;20392;-82
2021/08/15 03:14:58;;;;;;;;;;;17.70;99.90;;;;;;5054279;28;19909;-82
2021/08/15 03:17:24;;;;;;;;;;;17.70;99.90;;;;;;5054248;28;19909;-82
2021/08/15 03:19:49;;;;;;;;;;;17.80;99.90;;;;;;5053235;28;19916;-82
2021/08/15 03:22:15;;;;;;;;;;;17.80;99.90;;;;;;5052581;28;19944;-82
2021/08/15 03:24:40;;;;;;;;;;;17.80;99.90;;;;;;5054399;28;20357;-82
2021/08/15 03:27:06;;;;;;;;;;;17.80;99.90;;;;;;5052742;28;19915;-82
2021/08/15 03:29:37;;;;;;;;;;;17.80;99.90;;;;;;5053594;28;19913;-82
2021/08/15 03:32:03;;;;;;;;;;;17.80;99.90;;;;;;5054027;28;19951;-82
2021/08/15 03:34:28;;;;;;;;;;;17.80;99.90;;;;;;5056378;28;19909;-82
2021/08/15 03:36:54;;;;;;;;;;;17.70;99.90;;;;;;5058989;28;19913;-82
2021/08/15 03:39:21;;;;;;;;;;;17.80;99.90;;;;;;5058355;28;19963;-81
2021/08/15 03:41:49;;;;;;;;;;;17.80;99.90;;;;;;5057834;28;20438;-82
2021/08/15 03:44:14;;;;;;;;;;;17.70;99.90;;;;;;5057313;28;20339;-82
2021/08/15 03:46:40;;;;;;;;;;;17.70;99.90;;;;;;5072845;28;19909;-82
2021/08/15 03:49:06;;;;;;;;;;;17.70;99.90;;;;;;5057149;28;20381;-82
2021/08/15 03:51:32;;;;;;;;;;;17.70;99.90;;;;;;5056943;28;19916;-82
2021/08/15 03:53:57;;;;;;;;;;;17.70;99.90;;;;;;5055995;28;19909;-82
2021/08/15 03:56:23;;;;;;;;;;;17.70;99.90;;;;;;5057277;28;19920;-82
2021/08/15 03:58:48;;;;;;;;;;;17.70;99.90;;;;;;5056798;28;20391;-82
2021/08/15 04:01:14;;;;;;;;;;;17.70;99.90;;;;;;5056907;28;19909;-81
2021/08/15 04:03:39;;;;;;;;;;;17.70;99.90;;;;;;5072811;28;20008;-82
2021/08/15 04:06:08;;;;;;;;;;;17.70;99.90;;;;;;5057068;28;19913;-81
2021/08/15 04:08:34;;;;;;;;;;;17.70;99.90;;;;;;5072475;28;19916;-82
2021/08/15 04:11:00;;;;;;;;;;;17.70;99.90;;;;;;5054866;28;20027;-82
2021/08/15 04:13:25;;;;;;;;;;;17.70;99.90;;;;;;5055609;28;19909;-82
2021/08/15 04:15:51;;;;;;;;;;;17.70;99.90;;;;;;5072300;28;19913;-82
2021/08/15 04:18:16;;;;;;;;;;;17.70;99.90;;;;;;5056999;28;19971;-82
2021/08/15 04:20:42;;;;;;;;;;;17.60;99.90;;;;;;5056574;28;20315;-82
2021/08/15 04:23:07;;;;;;;;;;;17.60;99.90;;;;;;5072450;28;20011;-82
2021/08/15 04:25:33;;;;;;;;;;;17.60;99.90;;;;;;5056685;28;19931;-81
2021/08/15 04:27:58;;;;;;;;;;;17.60;99.90;;;;;;5055378;28;19916;-82
2021/08/15 04:30:24;;;;;;;;;;;17.60;99.90;;;;;;5054904;28;20055;-82
2021/08/15 04:32:49;;;;;;;;;;;17.60;99.90;;;;;;5056575;28;19916;-82
2021/08/15 04:35:15;;;;;;;;;;;17.60;99.90;;;;;;5056783;28;19912;-82
2021/08/15 04:37:40;;;;;;;;;;;17.60;99.90;;;;;;5056782;28;19909;-82
2021/08/15 04:40:06;;;;;;;;;;;17.60;99.90;;;;;;5054980;28;19909;-82
2021/08/15 04:42:32;;;;;;;;;;;17.60;99.90;;;;;;5056671;28;20304;-81
2021/08/15 04:44:57;;;;;;;;;;;17.60;99.90;;;;;;5054355;28;20007;-82
2021/08/15 04:47:23;;;;;;;;;;;17.60;99.90;;;;;;5056751;28;19909;-82
2021/08/15 04:49:48;;;;;;;;;;;17.60;99.90;;;;;;5054516;28;19909;-82
2021/08/15 04:52:14;;;;;;;;;;;17.60;99.90;;;;;;5071970;28;20281;-82
2021/08/15 04:54:39;;;;;;;;;;;17.60;99.90;;;;;;5056421;28;20274;-82
2021/08/15 04:57:05;;;;;;;;;;;17.60;99.90;;;;;;5072396;28;19923;-82
2021/08/15 04:59:30;;;;;;;;;;;17.60;99.90;;;;;;5071688;28;19915;-83
2021/08/15 05:01:56;;;;;;;;;;;17.60;99.90;;;;;;5057007;28;19912;-82
2021/08/15 05:04:22;;;;;;;;;;;17.60;99.90;;;;;;5057288;28;20012;-82
2021/08/15 05:06:47;;;;;;;;;;;17.50;99.90;;;;;;5056053;28;20042;-83
2021/08/15 05:09:13;;;;;;;;;;;17.60;99.90;;;;;;5055305;28;20354;-82
2021/08/15 05:11:39;;;;;;;;;;;17.60;99.90;;;;;;5055923;28;19909;-82
2021/08/15 05:14:06;;;;;;;;;;;17.60;99.90;;;;;;5057316;28;19944;-82
2021/08/15 05:16:31;;;;;;;;;;;17.60;99.90;;;;;;5057564;28;19913;-82
2021/08/15 05:18:57;;;;;;;;;;;17.60;99.90;;;;;;5055883;28;19917;-82
2021/08/15 05:21:23;;;;;;;;;;;17.60;99.90;;;;;;5056490;28;19909;-82
2021/08/15 05:23:48;;;;;;;;;;;17.60;99.90;;;;;;5072074;28;20438;-82
2021/08/15 05:26:14;;;;;;;;;;;17.60;99.90;;;;;;5071991;28;19939;-82
2021/08/15 05:28:39;;;;;;;;;;;17.70;99.90;;;;;;5055004;28;19912;-82
2021/08/15 05:31:05;;;;;;;;;;;17.70;99.90;;;;;;5054215;28;20313;-82
2021/08/15 05:33:30;;;;;;;;;;;17.80;99.90;;;;;;5056467;28;20281;-82
2021/08/15 05:35:56;;;;;;;;;;;17.80;99.90;;;;;;5057231;28;19913;-82
2021/08/15 05:38:21;;;;;;;;;;;17.80;99.90;;;;;;5055385;28;19909;-82
2021/08/15 05:40:47;;;;;;;;;;;17.90;99.90;;;;;;5055840;28;19944;-82
2021/08/15 05:43:12;;;;;;;;;;;17.90;99.90;;;;;;5054879;28;19908;-81
2021/08/15 05:45:38;;;;;;;;;;;18.00;99.90;;;;;;5071980;28;19919;-82
2021/08/15 05:48:07;;;;;;;;;;;18.00;99.90;;;;;;5071285;28;19913;-82
2021/08/15 05:50:32;;;;;;;;;;;18.10;99.90;;;;;;5055540;28;19905;-82
2021/08/15 05:52:58;;;;;;;;;;;18.20;99.90;;;;;;5054204;28;19916;-82
2021/08/15 05:55:23;;;;;;;;;;;18.20;99.90;;;;;;5054622;28;19925;-82
2021/08/15 05:57:49;;;;;;;;;;;18.20;99.90;;;;;;5055615;28;19955;-82
2021/08/15 06:00:14;;;;;;;;;;;18.20;99.90;;;;;;5054168;28;19913;-82
2021/08/15 06:02:41;;;;;;;;;;;18.20;99.90;;;;;;5054374;28;19916;-82
2021/08/15 06:05:07;;;;;;;;;;;18.30;99.90;;;;;;5054744;28;19915;-82
2021/08/15 06:07:33;;;;;;;;;;;18.30;99.90;;;;;;5054141;28;20369;-83
2021/08/15 06:09:58;;;;;;;;;;;18.40;99.90;;;;;;5055326;28;20019;-82
2021/08/15 06:12:24;;;;;;;;;;;18.40;99.90;;;;;;5055488;28;19913;-82
2021/08/15 06:14:49;;;;;;;;;;;18.50;99.90;;;;;;5070716;28;20336;-82
2021/08/15 06:17:15;;;;;;;;;;;18.50;99.90;;;;;;5054084;28;19912;-82
2021/08/15 06:19:40;;;;;;;;;;;18.60;99.90;;;;;;5054962;28;20409;-82
2021/08/15 06:22:09;;;;;;;;;;;18.60;99.90;;;;;;5070613;28;20372;-82
2021/08/15 06:24:34;;;;;;;;;;;18.70;99.90;;;;;;5056003;28;19909;-82
2021/08/15 06:27:00;;;;;;;;;;;18.70;99.90;;;;;;5055468;28;19913;-82
2021/08/15 06:29:25;;;;;;;;;;;18.80;99.90;;;;;;5055041;28;19915;-82
2021/08/15 06:31:51;;;;;;;;;;;18.80;99.90;;;;;;5053829;28;20288;-82
2021/08/15 06:34:16;;;;;;;;;;;18.90;99.90;;;;;;5055778;28;20011;-82
2021/08/15 06:36:42;;;;;;;;;;;19.00;99.90;;;;;;5053616;28;19959;-82
2021/08/15 06:39:07;;;;;;;;;;;19.00;99.90;;;;;;5069917;28;20285;-82
2021/08/15 06:41:36;;;;;;;;;;;19.00;99.90;;;;;;5055316;28;19909;-82
2021/08/15 06:44:02;;;;;;;;;;;19.10;99.90;;;;;;5055465;28;20001;-83
2021/08/15 06:46:27;;;;;;;;;;;19.20;99.90;;;;;;5070266;28;19952;-83
2021/08/15 06:48:53;;;;;;;;;;;19.20;99.90;;;;;;5069908;28;20396;-82
2021/08/15 06:51:18;;;;;;;;;;;19.20;99.90;;;;;;5070440;28;19909;-82
2021/08/15 06:53:44;;;;;;;;;;;19.30;99.90;;;;;;5055359;28;19909;-83
2021/08/15 06:56:10;;;;;;;;;;;19.40;99.90;;;;;;5053441;28;19920;-83
2021/08/15 06:58:36;;;;;;;;;;;19.40;99.90;;;;;;5054100;28;19915;-83
2021/08/15 07:01:02;;;;;;;;;;;19.40;99.90;;;;;;5053181;28;20007;-82
2021/08/15 07:03:27;;;;;;;;;;;19.40;99.90;;;;;;5055556;28;19954;-82
2021/08/15 07:05:53;;;;;;;;;;;19.40;99.90;;;;;;5053931;28;20015;-83
2021/08/15 07:08:18;;;;;;;;;;;19.40;99.90;;;;;;5053407;28;20388;-83
2021/08/15 07:10:44;;;;;;;;;;;19.40;99.90;;;;;;5058255;28;19927;-82
2021/08/15 07:13:10;;;;;;;;;;;19.40;99.90;;;;;;5057613;28;19986;-83
2021/08/15 07:15:36;;;;;;;;;;;19.40;99.90;;;;;;5056841;28;19982;-83
2021/08/15 07:18:01;;;;;;;;;;;19.40;99.90;;;;;;5055305;28;19908;-83
2021/08/15 07:20:27;;;;;;;;;;;19.50;99.90;;;;;;5054439;28;19920;-83
2021/08/15 07:22:53;;;;;;;;;;;19.50;99.90;;;;;;5054831;28;19995;-82
2021/08/15 07:25:19;;;;;;;;;;;19.50;99.90;;;;;;5072001;28;19909;-83
2021/08/15 07:27:45;;;;;;;;;;;19.50;99.90;;;;;;5055441;28;19913;-83
2021/08/15 07:30:11;;;;;;;;;;;19.50;99.90;;;;;;5054543;28;19916;-83
2021/08/15 07:32:50;;;;;;;;;;;19.60;99.90;;;;;;5054916;28;19909;-83
2021/08/15 07:35:16;;;;;;;;;;;19.60;99.90;;;;;;5073738;28;19959;-82
2021/08/15 07:37:41;;;;;;;;;;;19.60;99.90;;;;;;5059005;28;19913;-83
2021/08/15 07:40:07;;;;;;;;;;;19.70;99.90;;;;;;5056381;28;20004;-83
2021/08/15 07:42:32;;;;;;;;;;;19.80;99.90;;;;;;5055591;28;19909;-83
2021/08/15 07:44:58;;;;;;;;;;;19.80;99.90;;;;;;5055953;28;20289;-83
2021/08/15 07:47:23;;;;;;;;;;;19.80;99.90;;;;;;5055454;28;19959;-83
2021/08/15 07:49:49;;;;;;;;;;;19.80;99.90;;;;;;5052008;28;19909;-82
2021/08/15 07:52:14;;;;;;;;;;;19.80;99.70;;;;;;5052302;28;20318;-82
2021/08/15 07:54:40;;;;;;;;;;;19.80;99.60;;;;;;5068874;28;19982;-82
2021/08/15 07:57:05;;;;;;;;;;;19.80;99.60;;;;;;5053082;28;19912;-82
2021/08/15 07:59:31;;;;;;;;;;;19.80;99.60;;;;;;5068223;28;19932;-82
2021/08/15 08:01:56;;;;;;;;;;;19.90;99.50;;;;;;5052272;28;20003;-82
2021/08/15 08:04:22;;;;;;;;;;;19.90;99.50;;;;;;5068878;28;19916;-82
2021/08/15 08:06:49;;;;;;;;;;;19.90;99.50;;;;;;5069308;28;19909;-82
2021/08/15 08:09:15;;;;;;;;;;;20.00;99.50;;;;;;5053889;28;20006;-82
2021/08/15 08:11:41;;;;;;;;;;;20.00;99.40;;;;;;5054102;28;19953;-82
2021/08/15 08:14:06;;;;;;;;;;;20.00;99.20;;;;;;5053922;28;19915;-83
2021/08/15 08:16:32;;;;;;;;;;;20.00;99.20;;;;;;5070565;28;19913;-83
2021/08/15 08:18:57;;;;;;;;;;;20.00;99.40;;;;;;5053365;28;20389;-83
2021/08/15 08:21:23;;;;;;;;;;;20.10;99.40;;;;;;5058713;28;20395;-83
2021/08/15 08:23:48;;;;;;;;;;;20.10;99.50;;;;;;5058895;28;19909;-82
2021/08/15 08:26:14;;;;;;;;;;;20.10;99.30;;;;;;5057821;28;19915;-83
2021/08/15 08:28:39;;;;;;;;;;;20.10;99.30;;;;;;5074252;28;20362;-83
2021/08/15 08:31:05;;;;;;;;;;;20.10;99.20;;;;;;5073689;28;19913;-83
2021/08/15 08:33:30;;;;;;;;;;;20.20;99.30;;;;;;5059382;28;19980;-83
2021/08/15 08:35:57;;;;;;;;;;;20.20;99.30;;;;;;5059122;28;19913;-83
2021/08/15 08:38:23;;;;;;;;;;;20.20;99.30;;;;;;5059720;28;19908;-83
2021/08/15 08:40:48;;;;;;;;;;;20.20;99.30;;;;;;5056104;28;19916;-83
2021/08/15 08:43:14;;;;;;;;;;;20.20;99.30;;;;;;5058534;28;19935;-82
2021/08/15 08:45:41;;;;;;;;;;;20.20;99.30;;;;;;5056831;28;19909;-83
2021/08/15 08:48:07;;;;;;;;;;;20.30;99.40;;;;;;5058873;28;19909;-83
2021/08/15 08:50:33;;;;;;;;;;;20.30;99.30;;;;;;5056908;28;19944;-83
2021/08/15 08:52:59;;;;;;;;;;;20.30;99.40;;;;;;5056829;28;20022;-83
2021/08/15 08:55:24;;;;;;;;;;;20.30;99.40;;;;;;5057158;28;20360;-83
2021/08/15 08:57:50;;;;;;;;;;;20.40;99.30;;;;;;5058339;28;19909;-83
2021/08/15 09:00:18;;;;;;;;;;;20.50;99.00;;;;;;5056549;28;20277;-83
2021/08/15 09:02:43;;;;;;;;;;;20.50;99.00;;;;;;5057934;28;19959;-83
2021/08/15 09:05:09;;;;;;;;;;;20.50;99.00;;;;;;5057176;28;19909;-83
2021/08/15 09:07:36;;;;;;;;;;;20.60;98.90;;;;;;5073833;28;19978;-83
2021/08/15 09:10:02;;;;;;;;;;;20.60;99.00;;;;;;5056414;28;19920;-83
2021/08/15 09:12:33;;;;;;;;;;;20.70;98.90;;;;;;5073405;28;19949;-83
2021/08/15 09:15:07;;;;;;;;;;;20.70;98.70;;;;;;5057008;28;19909;-83
2021/08/15 09:17:34;;;;;;;;;;;20.70;98.60;;;;;;5056405;28;19909;-83
2021/08/15 09:20:00;;;;;;;;;;;20.70;98.80;;;;;;5055454;28;19964;-82
2021/08/15 09:22:27;;;;;;;;;;;20.70;98.90;;;;;;5058521;28;20335;-82
2021/08/15 09:24:57;;;;;;;;;;;20.80;98.80;;;;;;5056692;28;20353;-83
2021/08/15 09:27:33;;;;;;;;;;;20.90;98.90;;;;;;5056818;28;19951;-83
2021/08/15 09:30:11;;;;;;;;;;;20.90;98.90;;;;;;5057681;28;19908;-83
2021/08/15 09:32:41;;;;;;;;;;;20.90;99.00;;;;;;5055582;28;19920;-83
2021/08/15 09:35:06;;;;;;;;;;;20.90;98.90;;;;;;5055695;28;20003;-83
2021/08/15 09:37:33;;;;;;;;;;;21.00;98.80;;;;;;5057701;28;19967;-83
2021/08/15 09:39:59;;;;;;;;;;;21.00;98.80;;;;;;5057581;28;19908;-83
2021/08/15 09:42:41;;;;;;;;;;;21.10;98.40;;;;;;5055849;28;19993;-83
2021/08/15 09:45:11;;;;;;;;;;;21.20;98.00;;;;;;5058041;28;19909;-83
2021/08/15 09:47:37;;;;;;;;;;;21.10;98.00;;;;;;5073237;28;19909;-83
2021/08/15 09:50:15;;;;;;;;;;;21.20;98.00;;;;;;5057165;28;20019;-83
2021/08/15 09:52:41;;;;;;;;;;;21.20;97.80;;;;;;5057351;28;20003;-83
2021/08/15 09:55:06;;;;;;;;;;;21.20;98.00;;;;;;5057206;28;19959;-83
2021/08/15 09:57:36;;;;;;;;;;;21.20;98.20;;;;;;5057171;28;19908;-83
2021/08/15 10:00:21;;;;;;;;;;;21.20;98.30;;;;;;5055424;28;19915;-83
2021/08/15 10:02:47;;;;;;;;;;;21.20;98.80;;;;;;5048636;28;19916;-83
2021/08/15 10:05:13;;;;;;;;;;;21.20;98.30;;;;;;5057293;28;19909;-83
2021/08/15 10:07:39;;;;;;;;;;;21.20;98.00;;;;;;5059699;28;20083;-83
2021/08/15 10:10:09;;;;;;;;;;;21.30;97.90;;;;;;5059439;28;19955;-83
2021/08/15 10:12:35;;;;;;;;;;;21.30;98.10;;;;;;5059486;28;19967;-83
2021/08/15 10:15:04;;;;;;;;;;;21.40;98.10;;;;;;5060220;28;19909;-83
2021/08/15 10:17:30;;;;;;;;;;;21.40;98.00;;;;;;5060590;28;19909;-83
2021/08/15 10:20:00;;;;;;;;;;;21.50;98.30;;;;;;5059063;28;19932;-83
2021/08/15 10:22:29;;;;;;;;;;;21.40;98.30;;;;;;5060816;28;19934;-83
2021/08/15 10:24:56;;;;;;;;;;;21.50;98.30;;;;;;5060520;28;20008;-83
2021/08/15 10:27:40;;;;;;;;;;;21.70;97.20;;;;;;5059670;28;19920;-82
2021/08/15 10:30:08;;;;;;;;;;;21.80;96.90;;;;;;5056946;28;19917;-83
2021/08/15 10:32:34;;;;;;;;;;;21.80;96.80;;;;;;5057243;28;20365;-83
2021/08/15 10:34:59;;;;;;;;;;;21.90;96.70;;;;;;5072565;28;20103;-83
2021/08/15 10:37:24;;;;;;;;;;;21.90;96.50;;;;;;5057893;28;19912;-83
2021/08/15 10:39:51;;;;;;;;;;;22.10;95.80;;;;;;5056158;28;19967;-83
2021/08/15 10:42:35;;;;;;;;;;;22.20;95.50;;;;;;5056661;28;19935;-83
2021/08/15 10:45:02;;;;;;;;;;;22.30;95.50;;;;;;5056228;28;19913;-82
2021/08/15 10:47:27;;;;;;;;;;;22.40;95.50;;;;;;5056941;28;19909;-83
2021/08/15 10:49:54;;;;;;;;;;;22.40;95.40;;;;;;5072202;28;19909;-83
2021/08/15 10:52:29;;;;;;;;;;;22.40;95.10;;;;;;5057056;28;20009;-82
2021/08/15 10:54:59;;;;;;;;;;;22.50;94.80;;;;;;5057378;28;20328;-83
2021/08/15 10:57:34;;;;;;;;;;;22.50;94.80;;;;;;5056950;28;19917;-82
2021/08/15 11:00:00;;;;;;;;;;;22.60;94.60;;;;;;5056205;28;19916;-83
2021/08/15 11:02:31;;;;;;;;;;;22.70;93.80;;;;;;5056420;28;20359;-82
2021/08/15 11:04:58;;;;;;;;;;;22.80;93.60;;;;;;5056197;28;19970;-83
2021/08/15 11:07:34;;;;;;;;;;;22.80;93.30;;;;;;5072499;28;19915;-83
2021/08/15 11:09:59;;;;;;;;;;;22.90;93.10;;;;;;5072157;28;19909;-83
2021/08/15 11:12:25;;;;;;;;;;;22.90;93.00;;;;;;5056413;28;19921;-83
2021/08/15 11:14:58;;;;;;;;;;;22.90;93.00;;;;;;5057704;28;19962;-82
2021/08/15 11:17:24;;;;;;;;;;;23.00;92.70;;;;;;5056658;28;20313;-83
2021/08/15 11:19:50;;;;;;;;;;;23.10;92.00;;;;;;5056337;28;19924;-83
2021/08/15 11:22:23;;;;;;;;;;;23.20;90.80;;;;;;5053570;28;19920;-83
2021/08/15 11:24:50;;;;;;;;;;;23.30;90.20;;;;;;5054809;28;20370;-83
2021/08/15 11:27:18;;;;;;;;;;;23.40;88.30;;;;;;5069716;28;19913;-83
2021/08/15 11:29:45;;;;;;;;;;;23.50;88.20;;;;;;5057822;28;19909;-83
2021/08/15 11:32:12;;;;;;;;;;;23.60;87.80;;;;;;5057659;28;19909;-83
2021/08/15 11:34:38;;;;;;;;;;;23.60;87.10;;;;;;5057613;28;19913;-83
2021/08/15 11:37:05;;;;;;;;;;;23.60;87.20;;;;;;5058204;28;20352;-83
2021/08/15 11:39:32;;;;;;;;;;;23.70;87.70;;;;;;5057580;28;20274;-83
2021/08/15 11:41:59;;;;;;;;;;;23.70;87.70;;;;;;5057666;28;19931;-83
2021/08/15 11:44:25;;;;;;;;;;;23.80;86.10;;;;;;5058160;28;20377;-83
2021/08/15 11:46:50;;;;;;;;;;;23.80;85.90;;;;;;5054003;28;19954;-83
2021/08/15 11:49:34;;;;;;;;;;;23.80;85.30;;;;;;5069161;28;20353;-83
2021/08/15 11:52:13;;;;;;;;;;;23.80;84.90;;;;;;5052875;28;20111;-83
2021/08/15 11:54:40;;;;;;;;;;;23.80;84.00;;;;;;5056194;28;19920;-83
2021/08/15 11:57:10;;;;;;;;;;;23.90;83.60;;;;;;5056619;28;19936;-83
2021/08/15 11:59:36;;;;;;;;;;;24.10;83.30;;;;;;5073168;28;19909;-83
2021/08/15 12:02:02;;;;;;;;;;;24.00;83.30;;;;;;5057126;28;19909;-83
2021/08/15 12:04:27;;;;;;;;;;;24.00;84.10;;;;;;5073461;28;20373;-83
2021/08/15 12:06:53;;;;;;;;;;;24.10;83.30;;;;;;5057498;28;20357;-83
2021/08/15 12:09:27;;;;;;;;;;;24.10;81.60;;;;;;5059629;28;19939;-82
2021/08/15 12:11:59;;;;;;;;;;;24.10;81.70;;;;;;5062450;28;20430;-83
2021/08/15 12:14:32;;;;;;;;;;;24.10;82.00;;;;;;5061717;28;19927;-83
2021/08/15 12:17:00;;;;;;;;;;;24.20;83.00;;;;;;5061561;28;19976;-83
2021/08/15 12:19:27;;;;;;;;;;;24.20;82.10;;;;;;5062564;28;19920;-82
2021/08/15 12:21:54;;;;;;;;;;;24.30;82.90;;;;;;5062868;28;19932;-83
2021/08/15 12:24:25;;;;;;;;;;;24.30;82.20;;;;;;5062496;28;19909;-83
2021/08/15 12:26:55;;;;;;;;;;;24.40;82.00;;;;;;5062844;28;19908;-83
2021/08/15 12:29:33;;;;;;;;;;;24.50;82.30;;;;;;5060835;28;19916;-82
2021/08/15 12:32:17;;;;;;;;;;;24.50;81.80;;;;;;5060441;28;19937;-83
2021/08/15 12:34:46;;;;;;;;;;;24.60;81.00;;;;;;5061014;28;19908;-83
2021/08/15 12:37:19;;;;;;;;;;;24.60;80.30;;;;;;5060475;28;20333;-83
2021/08/15 12:39:46;;;;;;;;;;;24.60;80.10;;;;;;5077552;28;19912;-83
2021/08/15 12:42:19;;;;;;;;;;;24.70;79.50;;;;;;5059386;28;19909;-83
2021/08/15 12:44:46;;;;;;;;;;;24.70;79.50;;;;;;5057519;28;19912;-83
2021/08/15 12:47:12;;;;;;;;;;;24.70;79.20;;;;;;5056522;28;20003;-83
2021/08/15 12:49:39;;;;;;;;;;;24.70;78.70;;;;;;5057162;28;19917;-83
2021/08/15 12:52:12;;;;;;;;;;;24.70;79.60;;;;;;5055942;28;19913;-83
2021/08/15 12:54:57;;;;;;;;;;;24.70;78.30;;;;;;5056040;28;20000;-83
2021/08/15 12:57:22;;;;;;;;;;;24.70;78.40;;;;;;5055287;28;19959;-83
2021/08/15 12:59:48;;;;;;;;;;;24.80;79.40;;;;;;5056011;28;19909;-82
2021/08/15 13:02:13;;;;;;;;;;;24.80;78.70;;;;;;5056527;28;19970;-83
2021/08/15 13:04:38;;;;;;;;;;;24.90;78.50;;;;;;5054681;28;19916;-83
2021/08/15 13:07:04;;;;;;;;;;;24.90;78.70;;;;;;5053902;28;19917;-83
2021/08/15 13:09:30;;;;;;;;;;;24.90;78.30;;;;;;5055891;28;19944;-83
2021/08/15 13:11:55;;;;;;;;;;;24.90;78.80;;;;;;5056376;28;20262;-83
2021/08/15 13:14:21;;;;;;;;;;;24.90;79.20;;;;;;5071668;28;19955;-83
2021/08/15 13:16:46;;;;;;;;;;;24.80;79.70;;;;;;5071693;28;20384;-83
2021/08/15 13:19:12;;;;;;;;;;;24.90;79.90;;;;;;5070975;28;19936;-83
2021/08/15 13:21:37;;;;;;;;;;;24.90;79.60;;;;;;5054592;28;20380;-83
2021/08/15 13:24:03;;;;;;;;;;;24.90;78.30;;;;;;5054702;28;19955;-83
2021/08/15 13:26:28;;;;;;;;;;;25.00;78.40;;;;;;5071478;28;20454;-83
2021/08/15 13:28:54;;;;;;;;;;;25.00;77.90;;;;;;5053982;28;19916;-82
2021/08/15 13:31:19;;;;;;;;;;;25.00;78.20;;;;;;5054171;28;19912;-83
2021/08/15 13:33:44;;;;;;;;;;;25.00;79.30;;;;;;5071032;28;19920;-83
2021/08/15 13:36:10;;;;;;;;;;;25.00;79.90;;;;;;5054734;28;20374;-82
2021/08/15 13:38:35;;;;;;;;;;;25.10;78.70;;;;;;5056520;28;19963;-83
2021/08/15 13:41:01;;;;;;;;;;;25.10;77.90;;;;;;5054589;28;19909;-82
2021/08/15 13:43:26;;;;;;;;;;;25.10;78.30;;;;;;5054096;28;20407;-83
2021/08/15 13:45:52;;;;;;;;;;;25.10;78.50;;;;;;5071204;28;20003;-83
2021/08/15 13:48:17;;;;;;;;;;;25.20;78.70;;;;;;5055780;28;19909;-83
2021/08/15 13:50:43;;;;;;;;;;;25.20;79.20;;;;;;5069727;28;19956;-83
2021/08/15 13:53:08;;;;;;;;;;;25.30;75.50;;;;;;5055813;28;19954;-83
2021/08/15 13:55:34;;;;;;;;;;;25.30;76.20;;;;;;5070783;28;19913;-83
2021/08/15 13:58:00;;;;;;;;;;;25.30;76.70;;;;;;5055241;28;19912;-83
2021/08/15 14:00:25;;;;;;;;;;;25.40;75.70;;;;;;5055033;28;19909;-83
2021/08/15 14:02:51;;;;;;;;;;;25.40;76.70;;;;;;5054158;28;19909;-83
2021/08/15 14:05:16;;;;;;;;;;;25.40;75.70;;;;;;5054054;28;19916;-83
2021/08/15 14:07:42;;;;;;;;;;;25.40;75.20;;;;;;5053793;28;19909;-82
2021/08/15 14:10:08;;;;;;;;;;;25.50;75.20;;;;;;5054691;28;19919;-83
2021/08/15 14:12:34;;;;;;;;;;;25.60;74.50;;;;;;5053971;28;19909;-83